createdAt,value
2019-06-08T00:00:13.199Z,0.00
2019-06-08T00:01:12.286Z,0.00
2019-06-08T00:02:12.579Z,0.00
2019-06-08T00:03:13.076Z,0.00
2019-06-08T00:04:12.948Z,0.00
2019-06-08T00:05:12.548Z,0.00
2019-06-08T00:06:12.640Z,0.00
2019-06-08T00:07:13.043Z,0.00
2019-06-08T00:08:12.991Z,0.00
2019-06-08T00:09:12.946Z,0.00
2019-06-08T00:10:12.738Z,0.00
2019-06-08T00:11:12.757Z,0.00
2019-06-08T00:12:12.894Z,0.00
2019-06-08T00:13:13.038Z,0.00
2019-06-08T00:14:12.983Z,0.00
2019-06-08T00:15:11.636Z,0.00
2019-06-08T00:16:11.626Z,0.00
2019-06-08T00:17:29.352Z,0.00
2019-06-08T00:18:13.213Z,0.00
2019-06-08T00:19:11.583Z,0.00
2019-06-08T00:20:11.576Z,0.00
2019-06-08T00:21:11.550Z,0.00
2019-06-08T00:22:11.540Z,0.00
2019-06-08T00:23:11.524Z,0.00
2019-06-08T00:24:11.514Z,0.00
2019-06-08T00:25:11.512Z,0.00
2019-06-08T00:26:11.528Z,0.00
2019-06-08T00:27:11.484Z,0.00
2019-06-08T00:28:11.477Z,0.00
2019-06-08T00:29:11.501Z,0.00
2019-06-08T00:30:11.450Z,0.00
2019-06-08T00:31:11.440Z,0.00
2019-06-08T00:32:11.468Z,0.00
2019-06-08T00:33:11.424Z,0.00
2019-06-08T00:34:11.411Z,0.00
2019-06-08T00:35:11.401Z,0.00
2019-06-08T00:36:11.388Z,0.00
2019-06-08T00:37:11.471Z,0.00
2019-06-08T00:38:11.380Z,0.00
2019-06-08T00:39:11.360Z,0.00
2019-06-08T00:40:11.342Z,0.00
2019-06-08T00:41:11.324Z,0.00
2019-06-08T00:42:11.319Z,0.00
2019-06-08T00:43:11.323Z,0.00
2019-06-08T00:44:11.295Z,0.00
2019-06-08T00:45:11.296Z,0.00
2019-06-08T00:46:11.269Z,0.00
2019-06-08T00:47:11.264Z,0.00
2019-06-08T00:48:11.255Z,0.00
2019-06-08T00:49:11.248Z,0.00
2019-06-08T00:50:11.262Z,0.00
2019-06-08T00:51:11.212Z,0.00
2019-06-08T00:52:11.221Z,0.00
2019-06-08T00:53:11.187Z,0.00
2019-06-08T00:54:11.184Z,0.00
2019-06-08T00:55:11.164Z,0.00
2019-06-08T00:56:11.172Z,0.00
2019-06-08T00:57:11.145Z,0.00
2019-06-08T00:58:11.149Z,0.00
2019-06-08T00:59:11.120Z,0.00
2019-06-08T01:00:11.586Z,0.00
2019-06-08T01:01:11.107Z,0.00
2019-06-08T01:02:11.089Z,0.00
2019-06-08T01:03:11.115Z,0.00
2019-06-08T01:04:11.073Z,0.00
2019-06-08T01:05:11.100Z,0.00
2019-06-08T01:06:11.048Z,0.00
2019-06-08T01:07:11.028Z,0.00
2019-06-08T01:08:11.120Z,0.00
2019-06-08T01:09:11.008Z,0.00
2019-06-08T01:10:11.050Z,0.00
2019-06-08T01:11:10.996Z,0.00
2019-06-08T01:12:10.984Z,0.00
2019-06-08T01:13:10.971Z,0.00
2019-06-08T01:14:10.948Z,0.00
2019-06-08T01:15:11.038Z,0.00
2019-06-08T01:16:10.944Z,0.00
2019-06-08T01:17:10.924Z,0.00
2019-06-08T01:18:10.929Z,0.00
2019-06-08T01:19:10.901Z,0.00
2019-06-08T01:20:10.881Z,0.00
2019-06-08T01:21:10.885Z,0.00
2019-06-08T01:22:10.858Z,0.00
2019-06-08T01:23:10.849Z,0.00
2019-06-08T01:24:10.860Z,0.00
2019-06-08T01:25:10.828Z,0.00
2019-06-08T01:26:10.848Z,0.00
2019-06-08T01:27:10.877Z,0.00
2019-06-08T01:28:10.792Z,0.00
2019-06-08T01:29:10.793Z,0.00
2019-06-08T01:30:10.782Z,0.00
2019-06-08T01:31:10.768Z,0.00
2019-06-08T01:32:10.752Z,0.00
2019-06-08T01:33:10.768Z,0.00
2019-06-08T01:34:10.727Z,0.00
2019-06-08T01:35:10.720Z,0.00
2019-06-08T01:36:10.736Z,0.00
2019-06-08T01:37:10.687Z,0.00
2019-06-08T01:38:10.691Z,0.00
2019-06-08T01:39:10.703Z,0.00
2019-06-08T01:40:10.724Z,0.00
2019-06-08T01:41:10.656Z,0.00
2019-06-08T01:42:10.636Z,0.00
2019-06-08T01:43:10.620Z,0.00
2019-06-08T01:44:10.619Z,0.00
2019-06-08T01:45:10.639Z,0.00
2019-06-08T01:46:10.608Z,0.00
2019-06-08T01:47:10.584Z,0.00
2019-06-08T01:48:20.117Z,0.00
2019-06-08T01:49:11.556Z,0.00
2019-06-08T01:50:10.547Z,0.00
2019-06-08T01:51:10.534Z,0.00
2019-06-08T01:52:10.560Z,0.00
2019-06-08T01:53:10.517Z,0.00
2019-06-08T01:54:10.508Z,0.00
2019-06-08T01:55:10.491Z,0.00
2019-06-08T01:56:10.476Z,0.00
2019-06-08T01:57:10.492Z,0.00
2019-06-08T01:58:10.477Z,0.00
2019-06-08T01:59:10.464Z,0.00
2019-06-08T02:00:41.223Z,0.00
2019-06-08T02:01:11.426Z,0.00
2019-06-08T02:02:10.409Z,0.00
2019-06-08T02:03:10.428Z,0.00
2019-06-08T02:04:10.417Z,0.00
2019-06-08T02:05:10.388Z,0.00
2019-06-08T02:06:10.361Z,0.00
2019-06-08T02:07:10.359Z,0.00
2019-06-08T02:08:10.340Z,0.00
2019-06-08T02:09:10.339Z,0.00
2019-06-08T02:10:10.320Z,0.00
2019-06-08T02:11:10.308Z,0.00
2019-06-08T02:12:10.304Z,0.00
2019-06-08T02:13:10.288Z,0.00
2019-06-08T02:14:10.335Z,0.00
2019-06-08T02:15:10.301Z,0.00
2019-06-08T02:16:10.248Z,0.00
2019-06-08T02:17:10.270Z,0.00
2019-06-08T02:18:10.232Z,0.00
2019-06-08T02:19:10.228Z,0.00
2019-06-08T02:20:10.220Z,0.00
2019-06-08T02:21:10.193Z,0.00
2019-06-08T02:22:10.179Z,0.00
2019-06-08T02:23:10.167Z,0.00
2019-06-08T02:24:10.159Z,0.00
2019-06-08T02:25:10.164Z,0.00
2019-06-08T02:26:10.229Z,0.00
2019-06-08T02:27:10.164Z,0.00
2019-06-08T02:28:10.112Z,0.00
2019-06-08T02:29:10.103Z,0.00
2019-06-08T02:30:10.096Z,0.00
2019-06-08T02:31:10.080Z,0.00
2019-06-08T02:32:10.089Z,0.00
2019-06-08T02:33:10.079Z,0.00
2019-06-08T02:34:10.055Z,0.00
2019-06-08T02:35:10.068Z,0.00
2019-06-08T02:36:10.035Z,0.00
2019-06-08T02:37:10.016Z,0.00
2019-06-08T02:38:10.044Z,4.00
2019-06-08T02:39:10.047Z,4.00
2019-06-08T02:40:09.977Z,4.00
2019-06-08T02:41:09.969Z,0.00
2019-06-08T02:42:09.960Z,0.00
2019-06-08T02:43:09.952Z,4.00
2019-06-08T02:44:09.975Z,4.00
2019-06-08T02:45:09.947Z,4.00
2019-06-08T02:46:09.956Z,4.00
2019-06-08T02:47:09.903Z,4.00
2019-06-08T02:48:09.901Z,4.00
2019-06-08T02:49:09.897Z,8.00
2019-06-08T02:50:09.874Z,4.00
2019-06-08T02:51:09.857Z,4.00
2019-06-08T02:52:09.864Z,8.00
2019-06-08T02:53:09.832Z,4.00
2019-06-08T02:54:09.827Z,8.00
2019-06-08T02:55:09.936Z,4.00
2019-06-08T02:56:09.796Z,8.00
2019-06-08T02:57:09.795Z,8.00
2019-06-08T02:58:09.776Z,8.00
2019-06-08T02:59:09.801Z,12.00
2019-06-08T03:00:09.786Z,8.00
2019-06-08T03:01:09.805Z,12.00
2019-06-08T03:02:09.733Z,12.00
2019-06-08T03:03:09.725Z,16.00
2019-06-08T03:04:09.743Z,12.00
2019-06-08T03:05:09.699Z,12.00
2019-06-08T03:06:09.718Z,16.00
2019-06-08T03:07:09.712Z,16.00
2019-06-08T03:08:09.665Z,16.00
2019-06-08T03:09:09.665Z,16.00
2019-06-08T03:10:09.653Z,20.00
2019-06-08T03:11:09.665Z,20.00
2019-06-08T03:12:09.652Z,20.00
2019-06-08T03:13:09.612Z,24.00
2019-06-08T03:14:09.612Z,24.00
2019-06-08T03:15:09.591Z,24.00
2019-06-08T03:16:09.572Z,24.00
2019-06-08T03:17:09.565Z,24.00
2019-06-08T03:18:09.565Z,24.00
2019-06-08T03:19:21.605Z,28.00
2019-06-08T03:20:10.528Z,28.00
2019-06-08T03:21:09.528Z,32.00
2019-06-08T03:22:11.038Z,36.00
2019-06-08T03:23:09.505Z,36.00
2019-06-08T03:24:09.494Z,40.00
2019-06-08T03:25:09.476Z,36.00
2019-06-08T03:26:09.488Z,40.00
2019-06-08T03:27:09.459Z,44.00
2019-06-08T03:28:09.437Z,40.00
2019-06-08T03:29:09.434Z,44.00
2019-06-08T03:30:17.629Z,40.00
2019-06-08T03:31:10.401Z,44.00
2019-06-08T03:32:09.430Z,40.00
2019-06-08T03:33:09.397Z,40.00
2019-06-08T03:34:09.382Z,44.00
2019-06-08T03:35:09.374Z,40.00
2019-06-08T03:36:09.383Z,40.00
2019-06-08T03:37:09.342Z,48.00
2019-06-08T03:38:09.335Z,48.00
2019-06-08T03:39:09.324Z,60.00
2019-06-08T03:40:09.318Z,56.00
2019-06-08T03:41:09.324Z,60.00
2019-06-08T03:42:09.305Z,80.00
2019-06-08T03:43:09.269Z,88.00
2019-06-08T03:44:09.293Z,80.00
2019-06-08T03:45:09.243Z,84.00
2019-06-08T03:46:09.238Z,88.00
2019-06-08T03:47:09.253Z,76.00
2019-06-08T03:48:09.227Z,68.00
2019-06-08T03:49:09.209Z,76.00
2019-06-08T03:50:09.199Z,72.00
2019-06-08T03:51:09.184Z,84.00
2019-06-08T03:52:09.193Z,84.00
2019-06-08T03:53:09.174Z,96.00
2019-06-08T03:54:09.167Z,100.00
2019-06-08T03:55:09.167Z,116.00
2019-06-08T03:56:09.134Z,136.00
2019-06-08T03:57:09.118Z,132.00
2019-06-08T03:58:10.530Z,132.00
2019-06-08T03:59:09.111Z,148.00
2019-06-08T04:00:13.548Z,220.00
2019-06-08T04:01:09.086Z,180.00
2019-06-08T04:02:09.055Z,196.00
2019-06-08T04:03:09.061Z,216.00
2019-06-08T04:04:09.061Z,236.00
2019-06-08T04:05:09.046Z,252.00
2019-06-08T04:06:09.038Z,240.00
2019-06-08T04:07:09.061Z,288.00
2019-06-08T04:08:09.023Z,188.00
2019-06-08T04:09:08.976Z,172.00
2019-06-08T04:10:08.976Z,176.00
2019-06-08T04:11:08.966Z,228.00
2019-06-08T04:12:08.965Z,224.00
2019-06-08T04:13:11.501Z,220.00
2019-06-08T04:14:08.945Z,232.00
2019-06-08T04:15:08.937Z,236.00
2019-06-08T04:16:08.967Z,228.00
2019-06-08T04:17:08.887Z,208.00
2019-06-08T04:18:08.880Z,216.00
2019-06-08T04:19:08.864Z,180.00
2019-06-08T04:20:11.465Z,204.00
2019-06-08T04:21:08.836Z,268.00
2019-06-08T04:22:08.841Z,300.00
2019-06-08T04:23:08.840Z,312.00
2019-06-08T04:24:08.808Z,360.00
2019-06-08T04:25:08.792Z,360.00
2019-06-08T04:26:08.793Z,380.00
2019-06-08T04:27:08.887Z,396.00
2019-06-08T04:28:08.784Z,348.00
2019-06-08T04:29:08.760Z,348.00
2019-06-08T04:30:08.738Z,368.00
2019-06-08T04:31:08.732Z,472.00
2019-06-08T04:32:08.737Z,492.00
2019-06-08T04:33:08.711Z,500.00
2019-06-08T04:34:08.721Z,532.00
2019-06-08T04:35:08.688Z,468.00
2019-06-08T04:36:08.673Z,436.00
2019-06-08T04:37:08.659Z,420.00
2019-06-08T04:38:08.687Z,344.00
2019-06-08T04:39:08.640Z,368.00
2019-06-08T04:40:08.645Z,376.00
2019-06-08T04:41:08.626Z,344.00
2019-06-08T04:42:08.624Z,392.00
2019-06-08T04:43:08.595Z,416.00
2019-06-08T04:44:08.583Z,384.00
2019-06-08T04:45:08.608Z,424.00
2019-06-08T04:46:08.589Z,372.00
2019-06-08T04:47:08.547Z,456.00
2019-06-08T04:48:09.870Z,432.00
2019-06-08T04:49:08.530Z,416.00
2019-06-08T04:50:21.420Z,468.00
2019-06-08T04:51:09.535Z,504.00
2019-06-08T04:52:08.492Z,488.00
2019-06-08T04:53:08.516Z,464.00
2019-06-08T04:54:08.488Z,476.00
2019-06-08T04:55:08.461Z,452.00
2019-06-08T04:56:08.453Z,448.00
2019-06-08T04:57:08.460Z,448.00
2019-06-08T04:58:08.423Z,396.00
2019-06-08T04:59:08.417Z,340.00
2019-06-08T05:00:12.256Z,308.00
2019-06-08T05:01:08.397Z,328.00
2019-06-08T05:02:08.387Z,344.00
2019-06-08T05:03:08.378Z,428.00
2019-06-08T05:04:08.366Z,364.00
2019-06-08T05:05:08.369Z,424.00
2019-06-08T05:06:08.376Z,432.00
2019-06-08T05:07:08.336Z,476.00
2019-06-08T05:08:08.325Z,428.00
2019-06-08T05:09:08.300Z,420.00
2019-06-08T05:10:08.291Z,420.00
2019-06-08T05:11:08.280Z,392.00
2019-06-08T05:12:08.284Z,324.00
2019-06-08T05:13:08.271Z,284.00
2019-06-08T05:14:08.248Z,356.00
2019-06-08T05:15:08.240Z,348.00
2019-06-08T05:16:08.220Z,388.00
2019-06-08T05:17:08.214Z,364.00
2019-06-08T05:18:08.228Z,416.00
2019-06-08T05:19:08.199Z,368.00
2019-06-08T05:20:08.204Z,468.00
2019-06-08T05:21:08.175Z,464.00
2019-06-08T05:22:08.176Z,472.00
2019-06-08T05:23:08.144Z,544.00
2019-06-08T05:24:08.143Z,508.00
2019-06-08T05:25:08.124Z,508.00
2019-06-08T05:26:08.111Z,468.00
2019-06-08T05:27:08.095Z,488.00
2019-06-08T05:28:08.104Z,492.00
2019-06-08T05:29:08.083Z,480.00
2019-06-08T05:30:09.047Z,436.00
2019-06-08T05:31:08.057Z,384.00
2019-06-08T05:32:08.080Z,428.00
2019-06-08T05:33:08.043Z,588.00
2019-06-08T05:34:08.019Z,448.00
2019-06-08T05:35:08.012Z,452.00
2019-06-08T05:36:08.009Z,400.00
2019-06-08T05:37:08.003Z,420.00
2019-06-08T05:38:08.040Z,380.00
2019-06-08T05:39:07.964Z,388.00
2019-06-08T05:40:07.959Z,348.00
2019-06-08T05:41:07.939Z,328.00
2019-06-08T05:42:07.927Z,308.00
2019-06-08T05:43:07.923Z,340.00
2019-06-08T05:44:07.935Z,360.00
2019-06-08T05:45:07.907Z,400.00
2019-06-08T05:46:07.896Z,388.00
2019-06-08T05:47:07.880Z,400.00
2019-06-08T05:48:07.866Z,380.00
2019-06-08T05:49:07.864Z,384.00
2019-06-08T05:50:07.884Z,420.00
2019-06-08T05:51:07.836Z,372.00
2019-06-08T05:52:07.820Z,456.00
2019-06-08T05:53:07.811Z,408.00
2019-06-08T05:54:07.824Z,396.00
2019-06-08T05:55:07.791Z,440.00
2019-06-08T05:56:07.811Z,416.00
2019-06-08T05:57:07.767Z,428.00
2019-06-08T05:58:07.757Z,448.00
2019-06-08T05:59:07.759Z,508.00
2019-06-08T06:00:09.087Z,508.00
2019-06-08T06:01:07.719Z,540.00
2019-06-08T06:02:07.732Z,500.00
2019-06-08T06:03:07.694Z,472.00
2019-06-08T06:04:07.679Z,496.00
2019-06-08T06:05:07.675Z,532.00
2019-06-08T06:06:07.668Z,508.00
2019-06-08T06:07:07.660Z,600.00
2019-06-08T06:08:18.346Z,588.00
2019-06-08T06:09:08.635Z,696.00
2019-06-08T06:10:07.636Z,628.00
2019-06-08T06:11:07.604Z,836.00
2019-06-08T06:12:07.619Z,656.00
2019-06-08T06:13:07.583Z,540.00
2019-06-08T06:14:07.575Z,636.00
2019-06-08T06:15:07.560Z,596.00
2019-06-08T06:16:07.543Z,564.00
2019-06-08T06:17:07.567Z,684.00
2019-06-08T06:18:07.543Z,608.00
2019-06-08T06:19:07.516Z,600.00
2019-06-08T06:20:07.505Z,604.00
2019-06-08T06:21:11.569Z,644.00
2019-06-08T06:22:07.503Z,692.00
2019-06-08T06:23:07.488Z,732.00
2019-06-08T06:24:07.490Z,712.00
2019-06-08T06:25:07.444Z,772.00
2019-06-08T06:26:07.447Z,848.00
2019-06-08T06:27:07.449Z,1196.00
2019-06-08T06:28:07.416Z,900.00
2019-06-08T06:29:07.399Z,804.00
2019-06-08T06:30:07.411Z,956.00
2019-06-08T06:31:07.387Z,884.00
2019-06-08T06:32:07.371Z,832.00
2019-06-08T06:33:07.409Z,932.00
2019-06-08T06:34:07.345Z,924.00
2019-06-08T06:35:07.335Z,944.00
2019-06-08T06:36:07.337Z,1028.00
2019-06-08T06:37:07.311Z,920.00
2019-06-08T06:38:07.357Z,1056.00
2019-06-08T06:39:07.291Z,948.00
2019-06-08T06:40:07.291Z,1004.00
2019-06-08T06:41:07.283Z,952.00
2019-06-08T06:42:07.258Z,900.00
2019-06-08T06:43:07.247Z,944.00
2019-06-08T06:44:07.236Z,924.00
2019-06-08T06:45:07.282Z,1080.00
2019-06-08T06:46:07.216Z,800.00
2019-06-08T06:47:07.215Z,832.00
2019-06-08T06:48:07.197Z,864.00
2019-06-08T06:49:07.178Z,840.00
2019-06-08T06:50:07.174Z,916.00
2019-06-08T06:51:07.166Z,904.00
2019-06-08T06:52:07.191Z,1132.00
2019-06-08T06:53:07.135Z,1060.00
2019-06-08T06:54:07.125Z,1032.00
2019-06-08T06:55:07.148Z,1304.00
2019-06-08T06:56:07.107Z,1132.00
2019-06-08T06:57:07.115Z,1132.00
2019-06-08T06:58:07.074Z,1016.00
2019-06-08T06:59:07.062Z,980.00
2019-06-08T07:00:07.051Z,1252.00
2019-06-08T07:01:07.043Z,1080.00
2019-06-08T07:02:07.058Z,1008.00
2019-06-08T07:03:07.054Z,1032.00
2019-06-08T07:04:07.011Z,1032.00
2019-06-08T07:05:07.023Z,1000.00
2019-06-08T07:06:06.987Z,920.00
2019-06-08T07:07:07.022Z,1084.00
2019-06-08T07:08:06.968Z,1120.00
2019-06-08T07:09:06.972Z,1312.00
2019-06-08T07:10:06.947Z,1148.00
2019-06-08T07:11:06.930Z,1200.00
2019-06-08T07:12:06.930Z,1412.00
2019-06-08T07:13:06.911Z,1568.00
2019-06-08T07:14:06.915Z,1796.00
2019-06-08T07:15:06.891Z,1476.00
2019-06-08T07:16:17.841Z,1488.00
2019-06-08T07:17:07.861Z,1340.00
2019-06-08T07:18:06.862Z,1988.00
2019-06-08T07:19:06.857Z,1312.00
2019-06-08T07:20:06.831Z,1112.00
2019-06-08T07:21:06.840Z,1200.00
2019-06-08T07:22:06.811Z,1144.00
2019-06-08T07:23:06.829Z,1076.00
2019-06-08T07:24:06.787Z,964.00
2019-06-08T07:25:06.781Z,780.00
2019-06-08T07:26:06.762Z,676.00
2019-06-08T07:27:07.681Z,704.00
2019-06-08T07:28:06.747Z,756.00
2019-06-08T07:29:06.735Z,764.00
2019-06-08T07:30:06.760Z,812.00
2019-06-08T07:31:06.715Z,792.00
2019-06-08T07:32:06.717Z,904.00
2019-06-08T07:33:06.686Z,792.00
2019-06-08T07:34:06.675Z,792.00
2019-06-08T07:35:06.708Z,768.00
2019-06-08T07:36:06.675Z,772.00
2019-06-08T07:37:06.651Z,800.00
2019-06-08T07:38:06.682Z,808.00
2019-06-08T07:39:06.625Z,800.00
2019-06-08T07:40:06.622Z,956.00
2019-06-08T07:41:06.607Z,904.00
2019-06-08T07:42:06.592Z,984.00
2019-06-08T07:43:06.583Z,1124.00
2019-06-08T07:44:06.591Z,1212.00
2019-06-08T07:45:06.553Z,1128.00
2019-06-08T07:46:06.555Z,1292.00
2019-06-08T07:47:06.531Z,1164.00
2019-06-08T07:48:06.561Z,1572.00
2019-06-08T07:49:06.535Z,1868.00
2019-06-08T07:50:06.495Z,1412.00
2019-06-08T07:51:06.488Z,1512.00
2019-06-08T07:52:10.362Z,1680.00
2019-06-08T07:53:06.485Z,1732.00
2019-06-08T07:54:06.451Z,1660.00
2019-06-08T07:55:06.459Z,1724.00
2019-06-08T07:56:06.439Z,2404.00
2019-06-08T07:57:06.450Z,1848.00
2019-06-08T07:58:06.418Z,1612.00
2019-06-08T07:59:06.399Z,1588.00
2019-06-08T08:00:09.504Z,1452.00
2019-06-08T08:01:08.158Z,1748.00
2019-06-08T08:02:06.370Z,1744.00
2019-06-08T08:03:06.359Z,2068.00
2019-06-08T08:04:06.343Z,2188.00
2019-06-08T08:05:06.324Z,2048.00
2019-06-08T08:06:06.343Z,1904.00
2019-06-08T08:07:06.390Z,1836.00
2019-06-08T08:08:06.315Z,1912.00
2019-06-08T08:09:06.283Z,1860.00
2019-06-08T08:10:06.453Z,2016.00
2019-06-08T08:11:06.263Z,1908.00
2019-06-08T08:12:06.259Z,1944.00
2019-06-08T08:13:06.255Z,1844.00
2019-06-08T08:14:06.227Z,1528.00
2019-06-08T08:15:06.239Z,1812.00
2019-06-08T08:16:06.206Z,1648.00
2019-06-08T08:17:06.218Z,1808.00
2019-06-08T08:18:06.276Z,1900.00
2019-06-08T08:19:06.190Z,1996.00
2019-06-08T08:20:06.159Z,1568.00
2019-06-08T08:21:21.030Z,1636.00
2019-06-08T08:22:22.121Z,2140.00
2019-06-08T08:23:09.165Z,2216.00
2019-06-08T08:24:07.330Z,2232.00
2019-06-08T08:25:08.255Z,3048.00
2019-06-08T08:26:06.095Z,3668.00
2019-06-08T08:27:08.379Z,2348.00
2019-06-08T08:28:08.090Z,2636.00
2019-06-08T08:29:08.345Z,2008.00
2019-06-08T08:30:08.151Z,2156.00
2019-06-08T08:31:07.893Z,1420.00
2019-06-08T08:32:07.515Z,1424.00
2019-06-08T08:33:07.856Z,1376.00
2019-06-08T08:34:08.382Z,1224.00
2019-06-08T08:35:08.578Z,1392.00
2019-06-08T08:36:07.265Z,1176.00
2019-06-08T08:37:09.241Z,1568.00
2019-06-08T08:38:07.636Z,1652.00
2019-06-08T08:39:08.168Z,1524.00
2019-06-08T08:40:07.838Z,1468.00
2019-06-08T08:41:08.256Z,1640.00
2019-06-08T08:42:08.318Z,1432.00
2019-06-08T08:43:05.931Z,1364.00
2019-06-08T08:44:07.838Z,1468.00
2019-06-08T08:45:08.716Z,1576.00
2019-06-08T08:46:07.688Z,1076.00
2019-06-08T08:47:07.627Z,1036.00
2019-06-08T08:48:20.458Z,816.00
2019-06-08T08:49:10.390Z,752.00
2019-06-08T08:50:07.383Z,744.00
2019-06-08T08:51:08.372Z,920.00
2019-06-08T08:52:05.814Z,1064.00
2019-06-08T08:53:05.795Z,1308.00
2019-06-08T08:54:08.483Z,1044.00
2019-06-08T08:55:08.084Z,1088.00
2019-06-08T08:56:07.346Z,1096.00
2019-06-08T08:57:08.291Z,1284.00
2019-06-08T08:58:08.209Z,1464.00
2019-06-08T08:59:07.870Z,1884.00
2019-06-08T09:00:08.335Z,2260.00
2019-06-08T09:01:07.998Z,1944.00
2019-06-08T09:02:11.032Z,2120.00
2019-06-08T09:03:22.097Z,2276.00
2019-06-08T09:04:08.780Z,2240.00
2019-06-08T09:05:08.355Z,2252.00
2019-06-08T09:06:05.660Z,2780.00
2019-06-08T09:07:09.534Z,2520.00
2019-06-08T09:08:05.668Z,2820.00
2019-06-08T09:09:05.630Z,2300.00
2019-06-08T09:10:08.596Z,2768.00
2019-06-08T09:11:08.231Z,3264.00
2019-06-08T09:12:08.084Z,2760.00
2019-06-08T09:13:05.575Z,3304.00
2019-06-08T09:14:12.566Z,3632.00
2019-06-08T09:15:08.627Z,4188.00
2019-06-08T09:16:07.819Z,3120.00
2019-06-08T09:17:08.283Z,2876.00
2019-06-08T09:18:07.965Z,2004.00
2019-06-08T09:19:08.316Z,2832.00
2019-06-08T09:20:05.510Z,2792.00
2019-06-08T09:21:08.125Z,2956.00
2019-06-08T09:22:05.476Z,2756.00
2019-06-08T09:23:12.667Z,2512.00
2019-06-08T09:24:07.702Z,2588.00
2019-06-08T09:25:05.453Z,2308.00
2019-06-08T09:26:10.072Z,2644.00
2019-06-08T09:27:08.004Z,4084.00
2019-06-08T09:28:05.455Z,3956.00
2019-06-08T09:29:10.647Z,3064.00
2019-06-08T09:30:08.368Z,2108.00
2019-06-08T09:31:05.369Z,2088.00
2019-06-08T09:32:05.369Z,1868.00
2019-06-08T09:33:07.824Z,1444.00
2019-06-08T09:34:10.985Z,1532.00
2019-06-08T09:35:09.073Z,1196.00
2019-06-08T09:36:07.711Z,1212.00
2019-06-08T09:37:07.876Z,1252.00
2019-06-08T09:38:05.385Z,1136.00
2019-06-08T09:39:09.890Z,1520.00
2019-06-08T09:40:06.269Z,1360.00
2019-06-08T09:41:05.627Z,1252.00
2019-06-08T09:42:05.400Z,1584.00
2019-06-08T09:43:10.370Z,1788.00
2019-06-08T09:44:10.646Z,1568.00
2019-06-08T09:45:05.629Z,1608.00
2019-06-08T09:46:05.578Z,1736.00
2019-06-08T09:47:11.974Z,2156.00
2019-06-08T09:48:09.158Z,2400.00
2019-06-08T09:49:11.063Z,2052.00
2019-06-08T09:50:08.982Z,2148.00
2019-06-08T09:51:06.456Z,1896.00
2019-06-08T09:52:07.669Z,1888.00
2019-06-08T09:53:20.120Z,1724.00
2019-06-08T09:54:09.181Z,1772.00
2019-06-08T09:55:08.985Z,1876.00
2019-06-08T09:56:07.319Z,1744.00
2019-06-08T09:57:06.776Z,1448.00
2019-06-08T09:58:11.049Z,1540.00
2019-06-08T09:59:10.479Z,1976.00
2019-06-08T10:00:14.337Z,1720.00
2019-06-08T10:01:08.749Z,1440.00
2019-06-08T10:02:11.808Z,1876.00
2019-06-08T10:03:09.093Z,1668.00
2019-06-08T10:04:06.743Z,1424.00
2019-06-08T10:05:06.346Z,1376.00
2019-06-08T10:06:08.578Z,2124.00
2019-06-08T10:07:08.591Z,1904.00
2019-06-08T10:08:05.981Z,1656.00
2019-06-08T10:09:04.993Z,1744.00
2019-06-08T10:10:06.453Z,1728.00
2019-06-08T10:11:06.062Z,1648.00
2019-06-08T10:12:06.150Z,1640.00
2019-06-08T10:13:09.192Z,2052.00
2019-06-08T10:14:08.804Z,2196.00
2019-06-08T10:15:08.025Z,2236.00
2019-06-08T10:16:06.898Z,2144.00
2019-06-08T10:17:06.620Z,2140.00
2019-06-08T10:18:05.109Z,3376.00
2019-06-08T10:19:07.076Z,2368.00
2019-06-08T10:20:07.416Z,2000.00
2019-06-08T10:21:06.146Z,2096.00
2019-06-08T10:22:05.134Z,2080.00
2019-06-08T10:23:08.130Z,2100.00
2019-06-08T10:24:09.028Z,1752.00
2019-06-08T10:25:07.973Z,1856.00
2019-06-08T10:26:06.590Z,1804.00
2019-06-08T10:27:08.000Z,1664.00
2019-06-08T10:28:10.557Z,1772.00
2019-06-08T10:29:10.029Z,1564.00
2019-06-08T10:30:06.932Z,1364.00
2019-06-08T10:31:06.949Z,1272.00
2019-06-08T10:32:05.808Z,1276.00
2019-06-08T10:33:05.770Z,1212.00
2019-06-08T10:34:06.172Z,1436.00
2019-06-08T10:35:09.677Z,1108.00
2019-06-08T10:36:06.082Z,916.00
2019-06-08T10:37:12.550Z,784.00
2019-06-08T10:38:11.238Z,940.00
2019-06-08T10:39:10.265Z,932.00
2019-06-08T10:40:07.608Z,944.00
2019-06-08T10:41:10.778Z,1152.00
2019-06-08T10:42:07.185Z,968.00
2019-06-08T10:43:06.571Z,996.00
2019-06-08T10:44:05.631Z,948.00
2019-06-08T10:45:09.553Z,972.00
2019-06-08T10:46:12.278Z,984.00
2019-06-08T10:47:07.417Z,1200.00
2019-06-08T10:48:06.132Z,1156.00
2019-06-08T10:49:05.955Z,1372.00
2019-06-08T10:50:08.937Z,1252.00
2019-06-08T10:51:06.794Z,1044.00
2019-06-08T10:52:06.504Z,1048.00
2019-06-08T10:53:08.071Z,1036.00
2019-06-08T10:54:08.704Z,1464.00
2019-06-08T10:55:06.286Z,1592.00
2019-06-08T10:56:05.604Z,1756.00
2019-06-08T10:57:07.467Z,2132.00
2019-06-08T10:58:04.604Z,2496.00
2019-06-08T10:59:06.980Z,1792.00
2019-06-08T11:00:13.893Z,3220.00
2019-06-08T11:01:07.848Z,2116.00
2019-06-08T11:02:11.347Z,2088.00
2019-06-08T11:03:06.948Z,3160.00
2019-06-08T11:04:05.422Z,2320.00
2019-06-08T11:05:09.066Z,2160.00
2019-06-08T11:06:07.542Z,2312.00
2019-06-08T11:07:09.634Z,2500.00
2019-06-08T11:08:08.587Z,2492.00
2019-06-08T11:09:11.981Z,2420.00
2019-06-08T11:10:06.309Z,2088.00
2019-06-08T11:11:05.026Z,2296.00
2019-06-08T11:12:08.283Z,1856.00
2019-06-08T11:13:10.391Z,2108.00
2019-06-08T11:14:07.075Z,1732.00
2019-06-08T11:15:05.002Z,1536.00
2019-06-08T11:16:06.246Z,1548.00
2019-06-08T11:17:05.006Z,1536.00
2019-06-08T11:18:06.941Z,1668.00
2019-06-08T11:19:07.621Z,1608.00
2019-06-08T11:20:07.355Z,1436.00
2019-06-08T11:21:07.211Z,1572.00
2019-06-08T11:22:07.683Z,1244.00
2019-06-08T11:23:05.654Z,1112.00
2019-06-08T11:24:13.292Z,1308.00
2019-06-08T11:25:08.325Z,2000.00
2019-06-08T11:26:13.805Z,1548.00
2019-06-08T11:27:05.704Z,1288.00
2019-06-08T11:28:05.479Z,1292.00
2019-06-08T11:29:05.051Z,1756.00
2019-06-08T11:30:11.674Z,1564.00
2019-06-08T11:31:08.422Z,1600.00
2019-06-08T11:32:06.552Z,1732.00
2019-06-08T11:33:04.083Z,2088.00
2019-06-08T11:34:04.146Z,1468.00
2019-06-08T11:35:04.182Z,1652.00
2019-06-08T11:36:07.999Z,1740.00
2019-06-08T11:37:06.658Z,1940.00
2019-06-08T11:38:04.194Z,3120.00
2019-06-08T11:39:04.301Z,2872.00
2019-06-08T11:40:04.553Z,1888.00
2019-06-08T11:41:04.605Z,2284.00
2019-06-08T11:42:04.410Z,1564.00
2019-06-08T11:43:04.397Z,1236.00
2019-06-08T11:44:05.160Z,1236.00
2019-06-08T11:45:04.521Z,1052.00
2019-06-08T11:46:04.760Z,1056.00
2019-06-08T11:47:04.681Z,1080.00
2019-06-08T11:48:04.787Z,1100.00
2019-06-08T11:49:05.886Z,1644.00
2019-06-08T11:50:04.638Z,2496.00
2019-06-08T11:51:04.656Z,2320.00
2019-06-08T11:52:04.618Z,2656.00
2019-06-08T11:53:05.171Z,2672.00
2019-06-08T11:54:04.935Z,4856.00
2019-06-08T11:55:05.384Z,3268.00
2019-06-08T11:56:04.700Z,3116.00
2019-06-08T11:57:04.873Z,2800.00
2019-06-08T11:58:04.831Z,2428.00
2019-06-08T11:59:03.786Z,2840.00
2019-06-08T12:00:11.902Z,2208.00
2019-06-08T12:01:05.574Z,2088.00
2019-06-08T12:02:03.680Z,1912.00
2019-06-08T12:03:03.856Z,2328.00
2019-06-08T12:04:03.670Z,2040.00
2019-06-08T12:05:03.787Z,2060.00
2019-06-08T12:06:04.186Z,1900.00
2019-06-08T12:07:04.098Z,1912.00
2019-06-08T12:08:04.380Z,2088.00
2019-06-08T12:09:04.325Z,1848.00
2019-06-08T12:10:04.542Z,1796.00
2019-06-08T12:11:04.242Z,1796.00
2019-06-08T12:12:04.512Z,1828.00
2019-06-08T12:13:04.681Z,1892.00
2019-06-08T12:14:04.608Z,1904.00
2019-06-08T12:15:04.647Z,1784.00
2019-06-08T12:16:03.522Z,1740.00
2019-06-08T12:17:03.544Z,1820.00
2019-06-08T12:18:03.553Z,1960.00
2019-06-08T12:19:04.288Z,2144.00
2019-06-08T12:20:03.477Z,1840.00
2019-06-08T12:21:03.763Z,1744.00
2019-06-08T12:22:03.871Z,1836.00
2019-06-08T12:23:03.964Z,1928.00
2019-06-08T12:24:04.135Z,1936.00
2019-06-08T12:25:03.869Z,1600.00
2019-06-08T12:26:04.050Z,1680.00
2019-06-08T12:27:10.102Z,1764.00
2019-06-08T12:28:04.596Z,1620.00
2019-06-08T12:29:04.932Z,1384.00
2019-06-08T12:30:08.902Z,1664.00
2019-06-08T12:31:04.727Z,1088.00